x

Buoy E01 - Central Maine Shelf (44032) Wave Buoy

6:04 - Sun 20th Aug 2017 All times are EDT. -4 hours from GMT.

  • Sig Wave height 2.6ft
  • Peak Period 6s
  • Wind
    4mph, 4mph gusts
  • Sea Temp 58°f
  • Ar Temp 59°f
  • Sea Pressure 1010.1mb
  • Buoy E01 - Central Maine Shelf
  • Buoy E01 - Central Maine Shelf

More Historic Weather Station data

Upgrade to MSW Pro to gain access to the past 30 days of data for over 8000 Wavebouys and Weather Stations around the globe.

Join

Comparision Forecast

View Surf forecast
   
Dom 08/20 6:04 2.5ft 6s 4 4 mph 1010.1mb 58f 59f
5:04 2.5ft 6s 4 4 mph 1009.5mb 58f 60f
4:04 2.5ft 6s 7 7 mph 1009.2mb 58f 60f
3:04 2.5ft 6s 4 7 mph 1008.9mb 58f 61f
2:04 2.5ft 8s 2 4 mph 1008.8mb 59f 61f
12:04 2.5ft 6s 4 4 mph 1009.1mb 58f 61f
Sáb 08/19 11:04 2.5ft 6s 4 4 mph 1008.9mb 60f 62f
10:04 3ft 6s 4 4 mph 1008.7mb 60f 62f
9:04 3ft 6s 4 4 mph 1008.6mb 60f 62f
8:04 3ft 6s 4 4 mph 1008.5mb 60f 62f
7:04 3.5ft 6s 4 4 mph 1008.1mb 60f 62f
6:04 3.5ft 6s 7 7 mph 1007.8mb 60f 63f
5:04 3ft 5s 9 9 mph 1007.8mb 60f 63f
4:04 3.5ft 6s 7 9 mph 1008.2mb 60f 62f
3:04 3.5ft 6s 4 4 mph 1008.3mb 60f 62f
2:04 3.5ft 6s 4 7 mph 1008.6mb 59f 61f
1:04 3.5ft 6s 2 4 mph 1008.3mb 58f 62f
12:04 3.5ft 5s 2 4 mph 1008.2mb 58f 61f
11:04 3.5ft 6s  -  2 mph 1008.4mb 58f 60f
10:04 4ft 6s 7 7 mph 1008.3mb 58f 60f
9:04 4.5ft 6s 7 9 mph 1007.9mb 58f 59f
8:04 4.5ft 6s 4 4 mph 1008.1mb 58f 59f
7:04 4.5ft 6s 4 7 mph 1008.2mb 58f 59f
Sex 08/18 3:04 2.5ft 8s 13 16 mph 1013.8mb 59f 60f
2:04 2ft 8s 7 9 mph 1014.9mb 59f 62f
1:04 1.6ft 8s 7 7 mph 1014.9mb 59f 59f
12:04 1.6ft 8s 4 4 mph 1015.1mb 59f 61f
11:04 1.6ft 8s 2 2 mph 1014.7mb 59f 61f
10:04 1.6ft 8s 7 7 mph 1014.5mb 59f 61f
9:04 1.6ft 8s 7 9 mph 1014.3mb 60f 60f
8:04 2ft 8s 9 9 mph 1014.1mb 60f 60f
7:04 2ft 8s 4 7 mph 1014.2mb 59f 60f
6:04 2.5ft 8s 2 4 mph 1014.4mb 59f 60f
5:04 2.5ft 8s 2 2 mph 1014.5mb 59f 60f
4:04 3ft 8s  -  2 mph 1014.7mb 59f 60f
3:04 3ft 8s 4 4 mph 1014.7mb 59f 60f
2:04 2.5ft 8s 4 4 mph 1014.9mb 59f 61f
1:04 2.5ft 8s 4 4 mph 1015.2mb 59f 62f
12:04 2.5ft 11s 4 4 mph 1015mb 59f 62f
Qui 08/17 11:04 2.5ft 11s 2 4 mph 1014.9mb 60f 63f
10:04 3ft 11s 4 7 mph 1014.7mb 60f 63f
9:04 3ft 11s 4 7 mph 1014.1mb 60f 63f
7:04 3.5ft 11s 11 13 mph 1013.1mb 60f 64f
6:04 2ft 4s 11 13 mph 1012.8mb 60f 64f
5:04 4ft 11s 11 13 mph 1012.7mb 60f 64f
4:04 4ft 11s 9 11 mph 1013mb 60f 64f
3:04 4.5ft 11s 11 16 mph 1013.1mb 60f 64f
2:04 4.5ft 11s 11 13 mph 1013.6mb 60f 64f
1:04 4.5ft 11s 11 13 mph 1014mb 60f 63f
12:04 4ft 11s 11 16 mph 1014.6mb 60f 63f
11:04 3.5ft 11s 16 18 mph 1014.9mb 60f 63f
10:04 3.5ft 11s 11 11 mph 1015.5mb 60f 62f
9:04 4ft 11s 11 13 mph 1015.4mb 59f 62f
8:04 4ft 11s 9 11 mph 1015.4mb 59f 62f
7:04  -   -  11 13 mph 1015.2mb 59f 62f
6:04 3ft 11s 9 11 mph 1014.7mb 60f 61f
5:04 3.5ft 11s 9 11 mph 1014.6mb 60f 61f
4:04 4.5ft 11s 11 13 mph 1014.6mb 59f 61f
3:04 4.5ft 11s 9 11 mph 1014.6mb 59f 61f
2:04 7ft 11s 4 7 mph 1014.6mb 60f 61f
1:04  -   -  7 9 mph 1014.6mb 60f 62f
12:04  -   -  11 16 mph 1014.8mb 60f 63f
Qua 08/16 11:04  -   -  13 16 mph 1014.6mb 60f 64f
9:04 3.5ft 11s 13 16 mph 1013.6mb 61f 66f
8:04 1.6ft 6s 11 13 mph 1012.6mb 61f 66f
7:04 1.3ft 3s 11 13 mph 1011.9mb 62f 67f
6:04 1.6ft 3s 7 9 mph 1011.5mb 62f 68f
5:04  -   -  11 13 mph 1011.2mb 62f 69f
4:04 3.5ft 11s 13 16 mph 1011.1mb 62f 69f
3:04  -   -  16 18 mph 1011mb 62f 68f
2:04 3.5ft 8s 11 13 mph 1011.1mb 62f 68f
1:04 4ft 11s 4 7 mph 1011.1mb 62f 66f
12:04 4ft 11s 11 11 mph 1011.4mb 61f 67f